Weidman, Michigan
Current Conditions -  °F | °C
As of 12:15 AM on Saturday 29 Nov 2014 (Local Time) from KMOP Reporting Station
Haze Haze  
Wind Chill: 19°   Ceiling: 2700
Heat Index: 25°   Visibility: 5mi
Dew Point: 23°   Wind: 6mph
Humidity: 91%   Direction: 110°ESE
Pressure: 30.01"   Gusts: NA
Location:  43.69°N, 84.97°W
Report Text: KMOP 290515Z AUTO 11005KT 5SM BR OVC027 M04/M05 A3001 RMK AO2 T10371050
Loading
Personal Weather Stations






























Interactive Weather Map New forecast layout! Learn more

10-Day Weather Forecast

Advertisements
Track Severe Weather on mobile